Time,TemperatureF,DewpointF,PressureIn,WindDirection,WindDirectionDegrees,WindSpeedMPH,WindSpeedGustMPH,Humidity,HourlyPrecipIn,Conditions,Clouds,dailyrainin,SoftwareType,DateUTC
2013-04-13 04:15:00,45.7,34.6,29.83,SW,228,7.0,7.0,65,0.00,,,0.00,Wunderground v.1.15,2013-04-13 08:15:00,
2013-04-13 04:20:00,45.6,34.5,29.84,WNW,297,6.0,9.0,65,0.00,,,0.00,Wunderground v.1.15,2013-04-13 08:20:00,
2013-04-13 04:30:00,45.5,34.8,29.84,WNW,300,6.0,6.0,66,0.00,,,0.00,Wunderground v.1.15,2013-04-13 08:30:00,
2013-04-13 04:35:00,45.3,35.0,29.84,WSW,243,6.0,7.0,67,0.00,,,0.00,Wunderground v.1.15,2013-04-13 08:35:00,
2013-04-13 04:45:00,45.3,34.6,29.84,WNW,296,6.0,6.0,66,0.00,,,0.00,Wunderground v.1.15,2013-04-13 08:45:00,
2013-04-13 04:50:00,45.1,34.4,29.84,SSW,211,4.0,6.0,66,0.00,,,0.00,Wunderground v.1.15,2013-04-13 08:50:00,
2013-04-13 05:00:00,45.0,34.7,29.85,NNW,343,5.0,8.0,67,0.00,,,0.00,Wunderground v.1.15,2013-04-13 09:00:00,
2013-04-13 05:05:00,45.0,34.7,29.85,WNW,285,5.0,18.0,67,0.00,,,0.00,Wunderground v.1.15,2013-04-13 09:05:00,
2013-04-13 05:15:00,44.8,34.9,29.85,WNW,286,3.0,18.0,68,0.00,,,0.00,Wunderground v.1.15,2013-04-13 09:15:00,
2013-04-13 05:25:00,44.8,34.9,29.85,NW,314,4.0,18.0,68,0.00,,,0.00,Wunderground v.1.15,2013-04-13 09:25:00,
2013-04-13 05:30:00,45.1,35.2,29.85,West,280,6.0,6.0,68,0.00,,,0.00,Wunderground v.1.15,2013-04-13 09:30:00,
2013-04-13 05:40:00,44.7,35.1,29.85,West,269,4.0,4.0,69,0.00,,,0.00,Wunderground v.1.15,2013-04-13 09:40:00,
2013-04-13 05:50:00,44.5,35.0,29.86,NW,311,3.0,18.0,69,0.00,,,0.00,Wunderground v.1.15,2013-04-13 09:50:00,
2013-04-13 06:00:00,44.6,35.1,29.86,WNW,291,4.0,4.0,69,0.00,,,0.00,Wunderground v.1.15,2013-04-13 10:00:00,
2013-04-13 06:15:00,44.1,34.9,29.86,WSW,239,2.0,7.0,70,0.00,,,0.00,Wunderground v.1.15,2013-04-13 10:15:00,
2013-04-13 06:20:00,44.0,35.2,29.87,SSW,211,2.0,2.0,71,0.00,,,0.00,Wunderground v.1.15,2013-04-13 10:20:00,
2013-04-13 06:25:00,43.8,35.0,29.87,WNW,293,1.0,2.0,71,0.00,,,0.00,Wunderground v.1.15,2013-04-13 10:25:00,
2013-04-13 06:30:00,43.5,35.1,29.87,West,267,1.0,1.0,72,0.00,,,0.00,Wunderground v.1.15,2013-04-13 10:30:00,
2013-04-13 06:40:00,43.7,35.3,29.87,SW,224,2.0,2.0,72,0.00,,,0.00,Wunderground v.1.15,2013-04-13 10:40:00,
2013-04-13 06:50:00,43.6,35.2,29.87,SW,226,1.0,1.0,72,0.00,,,0.00,Wunderground v.1.15,2013-04-13 10:50:00,
2013-04-13 07:00:00,43.8,35.7,29.88,West,270,1.0,1.0,73,0.00,,,0.00,Wunderground v.1.15,2013-04-13 11:00:00,
2013-04-13 07:10:00,43.8,35.7,29.89,West,267,2.0,2.0,73,0.00,,,0.00,Wunderground v.1.15,2013-04-13 11:10:00,
2013-04-13 07:25:00,45.1,36.3,29.89,WSW,257,3.0,15.0,71,0.00,,,0.00,Wunderground v.1.15,2013-04-13 11:25:00,
2013-04-13 07:30:00,45.4,36.5,29.90,West,271,2.0,15.0,71,0.00,,,0.00,Wunderground v.1.15,2013-04-13 11:30:00,
2013-04-13 07:41:00,46.0,36.8,29.90,SSW,212,2.0,15.0,70,0.00,,,0.00,Wunderground v.1.15,2013-04-13 11:41:00,
2013-04-13 14:10:00,61.7,36.5,29.92,NW,304,6.0,8.0,39,0.00,,,0.00,Wunderground v.1.15,2013-04-13 18:10:00,
2013-04-13 14:20:00,62.1,38.1,29.93,WNW,300,6.0,8.0,41,0.00,,,0.00,Wunderground v.1.15,2013-04-13 18:20:00,
2013-04-13 14:30:00,62.2,38.8,29.92,NW,315,5.0,6.0,42,0.00,,,0.00,Wunderground v.1.15,2013-04-13 18:30:00,
2013-04-13 14:35:00,62.4,35.1,29.92,WNW,284,5.0,6.0,36,0.00,,,0.00,Wunderground v.1.15,2013-04-13 18:35:00,
2013-04-13 14:40:00,62.0,36.1,29.92,WNW,288,6.0,6.0,38,0.00,,,0.00,Wunderground v.1.15,2013-04-13 18:40:00,
2013-04-13 14:45:00,62.4,36.4,29.92,WNW,300,5.0,9.0,38,0.00,,,0.00,Wunderground v.1.15,2013-04-13 18:45:00,
2013-04-13 14:50:00,62.7,37.4,29.92,NW,320,5.0,9.0,39,0.00,,,0.00,Wunderground v.1.15,2013-04-13 18:50:00,
2013-04-13 15:00:00,62.8,37.5,29.92,NW,316,7.0,8.0,39,0.00,,,0.00,Wunderground v.1.15,2013-04-13 19:00:00,
2013-04-13 15:10:00,63.4,36.7,29.92,NW,304,6.0,6.0,37,0.00,,,0.00,Wunderground v.1.15,2013-04-13 19:10:00,
2013-04-13 15:20:00,63.4,35.2,29.92,WNW,287,6.0,6.0,35,0.00,,,0.00,Wunderground v.1.15,2013-04-13 19:20:00,
2013-04-13 15:30:00,63.7,36.2,29.91,NW,308,6.0,6.0,36,0.00,,,0.00,Wunderground v.1.15,2013-04-13 19:30:00,
2013-04-13 15:40:00,63.9,35.7,29.91,WNW,291,5.0,5.0,35,0.00,,,0.00,Wunderground v.1.15,2013-04-13 19:40:00,
2013-04-13 15:50:00,63.8,36.3,29.91,WNW,300,5.0,15.0,36,0.00,,,0.00,Wunderground v.1.15,2013-04-13 19:50:00,
2013-04-13 16:00:00,64.3,37.5,29.91,NW,306,5.0,5.0,37,0.00,,,0.00,Wunderground v.1.15,2013-04-13 20:00:00,
2013-04-13 16:10:00,64.8,37.9,29.90,WNW,291,4.0,4.0,37,0.00,,,0.00,Wunderground v.1.15,2013-04-13 20:10:00,
2013-04-13 16:20:00,64.9,33.5,29.90,West,281,6.0,6.0,31,0.00,,,0.00,Wunderground v.1.15,2013-04-13 20:20:00,
2013-04-13 16:30:00,65.4,34.8,29.90,NW,323,5.0,6.0,32,0.00,,,0.00,Wunderground v.1.15,2013-04-13 20:30:00,
2013-04-13 16:40:00,65.2,33.8,29.90,NW,308,6.0,6.0,31,0.00,,,0.00,Wunderground v.1.15,2013-04-13 20:40:00,
2013-04-13 16:50:00,65.2,33.0,29.90,East,79,8.0,8.0,30,0.00,,,0.00,Wunderground v.1.15,2013-04-13 20:50:00,
2013-04-13 17:00:00,64.9,31.9,29.90,NW,304,7.0,7.0,29,0.00,,,0.00,Wunderground v.1.15,2013-04-13 21:00:00,
2013-04-13 17:10:00,64.8,30.0,29.90,WNW,297,7.0,15.0,27,0.00,,,0.00,Wunderground v.1.15,2013-04-13 21:10:00,
2013-04-13 17:20:00,65.0,31.1,29.90,WNW,294,7.0,7.0,28,0.00,,,0.00,Wunderground v.1.15,2013-04-13 21:20:00,
2013-04-13 17:30:00,64.8,30.0,29.90,West,274,6.0,15.0,27,0.00,,,0.00,Wunderground v.1.15,2013-04-13 21:30:00,
2013-04-13 17:40:00,64.7,29.9,29.90,West,280,6.0,6.0,27,0.00,,,0.00,Wunderground v.1.15,2013-04-13 21:40:00,
2013-04-13 17:50:00,64.8,30.9,29.91,West,278,5.0,5.0,28,0.00,,,0.00,Wunderground v.1.15,2013-04-13 21:50:00,
2013-04-13 18:00:00,64.6,29.8,29.91,West,269,6.0,6.0,27,0.00,,,0.00,Wunderground v.1.15,2013-04-13 22:00:00,
2013-04-13 18:10:00,64.3,30.5,29.91,WSW,248,6.0,6.0,28,0.00,,,0.00,Wunderground v.1.15,2013-04-13 22:10:00,
2013-04-13 18:20:00,64.0,29.3,29.92,NW,304,5.0,5.0,27,0.00,,,0.00,Wunderground v.1.15,2013-04-13 22:20:00,
2013-04-13 18:30:00,63.7,30.0,29.92,NW,310,6.0,7.0,28,0.00,,,0.00,Wunderground v.1.15,2013-04-13 22:30:00,
2013-04-13 18:40:00,63.3,30.5,29.92,WNW,285,6.0,6.0,29,0.00,,,0.00,Wunderground v.1.15,2013-04-13 22:40:00,
2013-04-13 18:51:00,63.0,27.5,29.93,NW,318,5.0,7.0,26,0.00,,,0.00,Wunderground v.1.15,2013-04-13 22:51:00,
2013-04-13 19:00:00,62.3,28.7,29.93,WNW,294,6.0,6.0,28,0.00,,,0.00,Wunderground v.1.15,2013-04-13 23:00:00,
2013-04-13 19:10:00,61.1,29.4,29.93,West,267,5.0,20.0,30,0.00,,,0.00,Wunderground v.1.15,2013-04-13 23:10:00,